Time;durP1;ratioP1;P1;durP2;ratioP2;P2;SDS_P1;SDS_P2;PMS_P1;PMS_P2;Temp;Humidity;BMP_temperature;BMP_pressure;BME280_temperature;BME280_humidity;BME280_pressure;Samples;Min_cycle;Max_cycle;Signal;HPM_P1;HPM_P2
2021/10/07 00:00:57;;;;;;;0.30;0.20;;;11.00;99.90;;;;;;4958876;28;20191;-66
2021/10/07 00:03:23;;;;;;;0.30;0.30;;;11.10;99.90;;;;;;4958087;28;20180;-69
2021/10/07 00:05:48;;;;;;;0.30;0.20;;;11.10;99.90;;;;;;4956993;28;20184;-69
2021/10/07 00:08:14;;;;;;;0.30;0.20;;;11.00;99.90;;;;;;4956895;28;20192;-69
2021/10/07 00:10:40;;;;;;;0.30;0.20;;;11.00;99.90;;;;;;4957870;28;20495;-69
2021/10/07 00:13:05;;;;;;;0.30;0.20;;;11.00;99.90;;;;;;4957833;28;20576;-69
2021/10/07 00:15:31;;;;;;;0.30;0.20;;;10.90;99.90;;;;;;4956810;28;20184;-66
2021/10/07 00:17:57;;;;;;;0.30;0.20;;;10.80;99.90;;;;;;4957409;28;20528;-64
2021/10/07 00:20:24;;;;;;;0.30;0.20;;;10.80;99.90;;;;;;4957547;28;20174;-65
2021/10/07 00:22:49;;;;;;;0.30;0.10;;;10.70;99.90;;;;;;4957438;28;20266;-65
2021/10/07 00:25:16;;;;;;;0.30;0.20;;;10.80;99.90;;;;;;4956860;28;20275;-65
2021/10/07 00:27:43;;;;;;;0.30;0.20;;;10.70;99.90;;;;;;4957565;28;20226;-65
2021/10/07 00:30:15;;;;;;;0.30;0.20;;;10.60;99.90;;;;;;4958228;28;20620;-69
2021/10/07 00:32:48;;;;;;;0.30;0.20;;;10.70;99.90;;;;;;4957232;28;20187;-67
2021/10/07 00:40:27;;;;;;;0.30;0.20;;;10.70;99.90;;;;;;4957361;29;20246;-69
2021/10/07 00:42:53;;;;;;;0.20;0.20;;;10.50;99.90;;;;;;4957268;28;20179;-68
2021/10/07 00:45:18;;;;;;;0.30;0.20;;;10.40;99.90;;;;;;4957552;28;20180;-67
2021/10/07 00:47:44;;;;;;;0.30;0.20;;;10.50;99.90;;;;;;4957664;28;20270;-66
2021/10/07 00:50:09;;;;;;;0.30;0.20;;;10.50;99.90;;;;;;4957138;28;20180;-65
2021/10/07 00:52:35;;;;;;;0.30;0.20;;;10.50;99.90;;;;;;4957109;28;20259;-65
2021/10/07 00:55:03;;;;;;;0.30;0.20;;;10.50;99.90;;;;;;4957138;28;20729;-65
2021/10/07 00:57:29;;;;;;;0.30;0.20;;;10.50;99.90;;;;;;4957116;28;20184;-65
2021/10/07 00:59:54;;;;;;;0.30;0.20;;;10.40;99.90;;;;;;4956970;28;20180;-67
2021/10/07 01:02:20;;;;;;;0.30;0.30;;;10.30;99.90;;;;;;4956971;28;20190;-67
2021/10/07 01:04:46;;;;;;;0.30;0.20;;;10.10;99.90;;;;;;4956836;29;20238;-69
2021/10/07 01:07:12;;;;;;;0.30;0.10;;;10.20;99.90;;;;;;4956778;28;20430;-66
2021/10/07 01:09:39;;;;;;;0.30;0.20;;;10.00;99.90;;;;;;4956525;28;20436;-65
2021/10/07 01:12:05;;;;;;;0.28;0.20;;;10.10;99.90;;;;;;4956657;28;20435;-67
2021/10/07 01:17:16;;;;;;;0.30;0.20;;;10.10;99.90;;;;;;4956572;28;20446;-67
2021/10/07 01:19:50;;;;;;;0.30;0.20;;;10.10;99.90;;;;;;4956411;28;20253;-66
2021/10/07 01:22:17;;;;;;;0.30;0.20;;;9.90;99.90;;;;;;4956746;28;20180;-66
2021/10/07 01:24:42;;;;;;;0.20;0.10;;;10.00;99.90;;;;;;4955492;28;20188;-66
2021/10/07 01:27:08;;;;;;;0.27;0.17;;;9.90;99.90;;;;;;4956286;28;20508;-66
2021/10/07 01:29:35;;;;;;;0.28;0.20;;;9.90;99.90;;;;;;4956096;28;20188;-64
2021/10/07 01:32:01;;;;;;;0.30;0.30;;;9.90;99.90;;;;;;4956744;28;20184;-65
2021/10/07 01:34:29;;;;;;;0.30;0.20;;;9.90;99.90;;;;;;4956264;28;20190;-65
2021/10/07 01:36:55;;;;;;;0.65;0.65;;;9.90;99.90;;;;;;4956742;28;20211;-69
2021/10/07 01:39:21;;;;;;;0.30;0.20;;;9.90;99.90;;;;;;4956416;28;20218;-65
2021/10/07 01:41:47;;;;;;;0.27;0.20;;;9.90;99.90;;;;;;4956968;28;20432;-65
2021/10/07 01:44:13;;;;;;;0.30;0.20;;;9.90;99.90;;;;;;4955647;28;20451;-67
2021/10/07 01:46:39;;;;;;;0.20;0.20;;;9.80;99.90;;;;;;4956040;28;20186;-67
2021/10/07 01:49:09;;;;;;;0.30;0.20;;;9.80;99.90;;;;;;4955840;29;20439;-65
2021/10/07 01:51:36;;;;;;;0.30;0.20;;;9.80;99.90;;;;;;4956146;28;20243;-65
2021/10/07 01:54:03;;;;;;;0.20;0.20;;;9.90;99.90;;;;;;4955034;28;20198;-65
2021/10/07 01:56:28;;;;;;;0.35;0.35;;;9.80;99.90;;;;;;4955891;28;20188;-64
2021/10/07 01:58:54;;;;;;;0.30;0.20;;;9.80;99.90;;;;;;4956107;28;20540;-65
2021/10/07 02:01:19;;;;;;;0.30;0.20;;;9.70;99.90;;;;;;4955912;28;20175;-67
2021/10/07 02:03:45;;;;;;;0.77;0.77;;;9.70;99.90;;;;;;4956041;28;20172;-67
2021/10/07 02:06:11;;;;;;;0.30;0.20;;;9.80;99.90;;;;;;4955806;28;20206;-65
2021/10/07 02:08:37;;;;;;;0.20;0.20;;;9.70;99.90;;;;;;4955551;28;20260;-65
2021/10/07 02:11:02;;;;;;;0.30;0.20;;;9.60;99.90;;;;;;4955817;28;20183;-65
2021/10/07 02:13:28;;;;;;;0.23;0.20;;;9.60;99.90;;;;;;4955613;28;20183;-65
2021/10/07 02:15:54;;;;;;;0.30;0.20;;;9.60;99.90;;;;;;4971033;28;20215;-65
2021/10/07 02:18:19;;;;;;;0.30;0.20;;;9.60;99.90;;;;;;4955659;28;20277;-65
2021/10/07 02:20:45;;;;;;;0.30;0.20;;;9.60;99.90;;;;;;4955721;28;20204;-69
2021/10/07 02:23:10;;;;;;;0.40;0.37;;;9.60;99.90;;;;;;4956376;28;20187;-65
2021/10/07 02:25:36;;;;;;;0.30;0.20;;;9.50;99.90;;;;;;4955941;28;20179;-66
2021/10/07 02:28:02;;;;;;;0.30;0.20;;;9.50;99.90;;;;;;4955589;28;20199;-68
2021/10/07 02:30:28;;;;;;;0.30;0.20;;;9.50;99.90;;;;;;4955924;28;20190;-67
2021/10/07 02:32:53;;;;;;;1.03;1.03;;;9.30;99.90;;;;;;4955639;28;20435;-64
2021/10/07 02:35:19;;;;;;;0.30;0.20;;;9.30;99.90;;;;;;4955580;28;20183;-66
2021/10/07 02:37:46;;;;;;;0.30;0.20;;;9.20;99.90;;;;;;4955446;28;20277;-67
2021/10/07 02:40:12;;;;;;;0.30;0.20;;;9.30;99.90;;;;;;4955260;28;20185;-67
2021/10/07 02:42:38;;;;;;;0.20;0.20;;;9.50;99.90;;;;;;4955301;28;20179;-67
2021/10/07 02:45:09;;;;;;;0.20;0.20;;;9.50;99.90;;;;;;4955628;28;20273;-67
2021/10/07 02:47:35;;;;;;;0.20;0.20;;;9.50;99.90;;;;;;4956346;28;20764;-67
2021/10/07 02:50:02;;;;;;;0.20;0.20;;;9.50;99.90;;;;;;4959157;28;20609;-67
2021/10/07 02:52:28;;;;;;;0.20;0.10;;;9.50;99.90;;;;;;4960179;28;20596;-67
2021/10/07 02:54:53;;;;;;;0.20;0.20;;;9.40;99.90;;;;;;4959412;28;20218;-68
2021/10/07 02:57:19;;;;;;;0.30;0.30;;;9.30;99.90;;;;;;4959094;28;20242;-69
2021/10/07 02:59:44;;;;;;;0.80;0.57;;;9.30;99.90;;;;;;4958817;28;20206;-69
2021/10/07 03:02:10;;;;;;;0.20;0.20;;;9.20;99.90;;;;;;4959436;28;20195;-65
2021/10/07 03:04:36;;;;;;;0.20;0.20;;;9.10;99.90;;;;;;4959012;28;20242;-64
2021/10/07 03:07:01;;;;;;;0.20;0.20;;;9.00;99.90;;;;;;4959018;28;20184;-64
2021/10/07 03:09:27;;;;;;;0.20;0.20;;;9.00;99.90;;;;;;4957850;28;20186;-67
2021/10/07 03:11:53;;;;;;;0.20;0.20;;;9.10;99.90;;;;;;4958797;28;20519;-67
2021/10/07 03:14:18;;;;;;;0.20;0.20;;;9.10;99.90;;;;;;4959325;28;20191;-65
2021/10/07 03:16:44;;;;;;;0.20;0.20;;;9.20;99.90;;;;;;4958780;28;20243;-65
2021/10/07 03:19:09;;;;;;;0.20;0.20;;;9.30;99.90;;;;;;4958765;28;20217;-68
2021/10/07 03:21:37;;;;;;;0.30;0.20;;;9.30;99.90;;;;;;4958699;28;20183;-67
2021/10/07 03:24:02;;;;;;;0.20;0.10;;;9.30;99.90;;;;;;4957681;28;20186;-67
2021/10/07 03:26:28;;;;;;;0.30;0.30;;;9.20;99.90;;;;;;4958637;28;20516;-67
2021/10/07 03:28:53;;;;;;;0.20;0.20;;;9.00;99.90;;;;;;4958343;28;20210;-67
2021/10/07 03:31:19;;;;;;;0.20;0.20;;;8.90;99.90;;;;;;4958623;28;20203;-67
2021/10/07 03:33:45;;;;;;;0.20;0.20;;;8.80;99.90;;;;;;4958563;28;20254;-67
2021/10/07 03:36:10;;;;;;;0.20;0.10;;;8.90;99.90;;;;;;4958448;28;20195;-69
2021/10/07 03:38:36;;;;;;;0.20;0.20;;;8.80;99.90;;;;;;4958111;28;20202;-64
2021/10/07 03:41:01;;;;;;;0.30;0.20;;;8.70;99.90;;;;;;4973357;28;20218;-65
2021/10/07 03:43:27;;;;;;;0.20;0.20;;;8.60;99.90;;;;;;4957377;28;20526;-65
2021/10/07 03:45:52;;;;;;;0.20;0.20;;;8.70;99.90;;;;;;4958197;28;20183;-64
2021/10/07 03:48:18;;;;;;;0.30;0.20;;;8.80;99.90;;;;;;4958153;28;20227;-64
2021/10/07 03:50:44;;;;;;;0.30;0.20;;;8.90;99.90;;;;;;4957222;28;20631;-64
2021/10/07 03:53:09;;;;;;;0.20;0.20;;;8.80;99.90;;;;;;4958240;28;20367;-64
2021/10/07 03:55:35;;;;;;;0.30;0.30;;;8.80;99.90;;;;;;4958053;28;20267;-64
2021/10/07 03:58:01;;;;;;;0.20;0.20;;;8.90;99.90;;;;;;4957815;28;20203;-67
2021/10/07 04:00:27;;;;;;;0.20;0.20;;;8.90;99.90;;;;;;4957119;28;20656;-68
2021/10/07 04:02:53;;;;;;;0.20;0.20;;;8.80;99.90;;;;;;4958112;28;20666;-65
2021/10/07 04:05:18;;;;;;;0.20;0.20;;;8.80;99.90;;;;;;4958460;28;20190;-69
2021/10/07 04:07:44;;;;;;;0.20;0.20;;;8.90;99.90;;;;;;4957876;28;20199;-69
2021/10/07 04:10:10;;;;;;;0.20;0.20;;;8.90;99.90;;;;;;4957555;28;20182;-69
2021/10/07 04:12:36;;;;;;;0.20;0.20;;;9.00;99.90;;;;;;4957829;28;20521;-69
2021/10/07 04:15:03;;;;;;;0.20;0.20;;;8.90;99.90;;;;;;4957611;28;20467;-69
2021/10/07 04:17:28;;;;;;;0.20;0.20;;;8.90;99.90;;;;;;4957713;28;20186;-69
2021/10/07 04:19:54;;;;;;;0.30;0.20;;;8.70;99.90;;;;;;4957350;28;20298;-69
2021/10/07 04:22:20;;;;;;;0.20;0.20;;;8.50;99.90;;;;;;4957776;28;20185;-65
2021/10/07 04:24:45;;;;;;;0.20;0.20;;;8.60;99.90;;;;;;4956573;28;20182;-68
2021/10/07 04:27:11;;;;;;;0.20;0.20;;;8.60;99.90;;;;;;4957372;28;20275;-68
2021/10/07 04:29:36;;;;;;;0.20;0.20;;;8.60;99.90;;;;;;4957315;28;20196;-68
2021/10/07 04:32:02;;;;;;;0.20;0.17;;;8.70;99.90;;;;;;4957525;28;20305;-68
2021/10/07 04:34:28;;;;;;;0.20;0.10;;;8.70;99.90;;;;;;4956995;28;20184;-65
2021/10/07 04:36:53;;;;;;;0.20;0.20;;;8.50;99.90;;;;;;4955748;28;20184;-68
2021/10/07 04:39:19;;;;;;;0.20;0.20;;;8.50;99.90;;;;;;4955093;28;20216;-68
2021/10/07 04:41:45;;;;;;;0.30;0.30;;;8.50;99.90;;;;;;4955620;28;20176;-68
2021/10/07 04:44:10;;;;;;;0.43;0.43;;;8.50;99.90;;;;;;4955701;28;20176;-68
2021/10/07 04:46:36;;;;;;;0.20;0.20;;;8.50;99.90;;;;;;4955236;28;20573;-66
2021/10/07 04:49:01;;;;;;;0.67;0.67;;;8.60;99.90;;;;;;4955180;28;20192;-66
2021/10/07 04:51:27;;;;;;;0.40;0.30;;;8.70;99.90;;;;;;4955712;28;20226;-66
2021/10/07 04:53:53;;;;;;;0.20;0.20;;;8.80;99.90;;;;;;4956980;28;20192;-66
2021/10/07 04:56:18;;;;;;;0.20;0.20;;;8.90;99.90;;;;;;4957080;28;20180;-66
2021/10/07 04:58:44;;;;;;;0.20;0.20;;;8.70;99.90;;;;;;4955595;28;20608;-66
2021/10/07 05:01:09;;;;;;;0.20;0.20;;;8.80;99.90;;;;;;4956830;28;20255;-66
2021/10/07 05:03:35;;;;;;;0.20;0.20;;;8.70;99.90;;;;;;4956784;28;20187;-66
2021/10/07 05:06:00;;;;;;;0.20;0.20;;;8.70;99.90;;;;;;4956853;28;20200;-66
2021/10/07 05:08:26;;;;;;;0.20;0.20;;;8.70;99.90;;;;;;4956626;28;20625;-66
2021/10/07 05:10:54;;;;;;;0.20;0.20;;;8.60;99.90;;;;;;4956153;28;20191;-66
2021/10/07 05:13:19;;;;;;;0.20;0.20;;;8.60;99.90;;;;;;4956654;28;20188;-66
2021/10/07 05:15:45;;;;;;;0.40;0.40;;;8.60;99.90;;;;;;4955624;28;20250;-66
2021/10/07 05:18:11;;;;;;;0.20;0.20;;;8.50;99.90;;;;;;4956245;28;20204;-66
2021/10/07 05:20:36;;;;;;;0.20;0.20;;;8.50;99.90;;;;;;4956647;28;20179;-66
2021/10/07 05:23:03;;;;;;;0.20;0.20;;;8.60;99.90;;;;;;4956503;28;20180;-66
2021/10/07 05:25:29;;;;;;;0.20;0.20;;;8.70;99.90;;;;;;4956451;28;20183;-66
2021/10/07 05:27:54;;;;;;;0.20;0.20;;;8.80;99.90;;;;;;4954995;28;20515;-66
2021/10/07 05:30:20;;;;;;;1.37;1.37;;;8.70;99.90;;;;;;4956144;28;20184;-66
2021/10/07 05:32:45;;;;;;;0.30;0.27;;;8.70;99.90;;;;;;4956615;28;20184;-68
2021/10/07 05:35:11;;;;;;;0.20;0.20;;;8.60;99.90;;;;;;4956354;28;20520;-68
2021/10/07 05:37:37;;;;;;;0.63;0.57;;;8.60;99.90;;;;;;4956316;28;20196;-68
2021/10/07 05:40:03;;;;;;;0.20;0.20;;;8.60;99.90;;;;;;4955945;28;20239;-68
2021/10/07 05:42:29;;;;;;;0.20;0.20;;;8.60;99.90;;;;;;4955968;28;20223;-68
2021/10/07 05:44:54;;;;;;;0.20;0.20;;;8.60;99.90;;;;;;4956149;28;20641;-68
2021/10/07 05:47:20;;;;;;;0.20;0.20;;;8.70;99.90;;;;;;4956144;28;20187;-69
2021/10/07 05:49:46;;;;;;;0.20;0.20;;;8.90;99.90;;;;;;4955813;28;20185;-66
2021/10/07 05:52:11;;;;;;;0.20;0.20;;;8.80;99.90;;;;;;4956055;28;20180;-68
2021/10/07 05:54:37;;;;;;;0.20;0.20;;;8.80;99.90;;;;;;4955988;28;20618;-66
2021/10/07 05:57:04;;;;;;;0.50;0.50;;;8.70;99.90;;;;;;4956432;28;20593;-66
2021/10/07 05:59:30;;;;;;;0.75;0.75;;;8.70;99.90;;;;;;4955810;28;20350;-65
2021/10/07 06:01:55;;;;;;;0.20;0.20;;;8.80;99.90;;;;;;4955890;28;20271;-65
2021/10/07 06:04:21;;;;;;;0.20;0.20;;;9.40;99.90;;;;;;4955910;28;20211;-65
2021/10/07 06:06:47;;;;;;;0.20;0.20;;;10.30;99.90;;;;;;4955819;28;20183;-65
2021/10/07 06:09:13;;;;;;;0.20;0.20;;;10.10;99.90;;;;;;4954774;28;20210;-68
2021/10/07 06:11:39;;;;;;;0.30;0.20;;;10.30;99.90;;;;;;4955805;28;20187;-68
2021/10/07 06:14:05;;;;;;;0.50;0.50;;;10.30;99.90;;;;;;4955895;28;20237;-65
2021/10/07 06:16:33;;;;;;;0.20;0.20;;;9.90;99.90;;;;;;4955656;28;20192;-68
2021/10/07 06:19:01;;;;;;;0.30;0.30;;;9.60;99.90;;;;;;4955175;28;20226;-68
2021/10/07 06:21:27;;;;;;;0.50;0.50;;;9.30;99.90;;;;;;4954871;28;20184;-68
2021/10/07 06:23:52;;;;;;;0.20;0.20;;;9.50;99.90;;;;;;4955668;28;20522;-65
2021/10/07 06:26:18;;;;;;;0.20;0.20;;;9.70;99.90;;;;;;4956015;28;20242;-68
2021/10/07 06:28:46;;;;;;;0.20;0.20;;;10.10;99.90;;;;;;4955324;28;20684;-68
2021/10/07 06:31:12;;;;;;;0.20;0.20;;;10.40;99.90;;;;;;4954707;28;20191;-68
2021/10/07 06:33:38;;;;;;;1.67;1.58;;;10.50;99.90;;;;;;4955552;28;20269;-65
2021/10/07 06:36:03;;;;;;;0.30;0.27;;;10.20;99.90;;;;;;4955536;28;20276;-65
2021/10/07 06:38:31;;;;;;;0.30;0.20;;;10.10;99.90;;;;;;4955142;28;20221;-67
2021/10/07 06:40:57;;;;;;;0.20;0.20;;;9.90;99.90;;;;;;4955872;28;20188;-68
2021/10/07 06:43:23;;;;;;;0.30;0.20;;;9.90;99.90;;;;;;4955477;28;20340;-64
2021/10/07 06:45:50;;;;;;;0.20;0.20;;;9.80;99.90;;;;;;4955416;28;20180;-65
2021/10/07 06:48:16;;;;;;;3.22;3.13;;;9.80;99.90;;;;;;4955739;28;20624;-67
2021/10/07 06:50:42;;;;;;;0.30;0.20;;;9.90;99.90;;;;;;4955207;28;20587;-67
2021/10/07 06:53:09;;;;;;;0.30;0.20;;;9.90;99.90;;;;;;4954882;28;20277;-65
2021/10/07 06:55:34;;;;;;;0.30;0.20;;;10.00;99.90;;;;;;4955192;28;20201;-65
2021/10/07 06:58:00;;;;;;;0.87;0.87;;;10.10;99.90;;;;;;4955290;28;20190;-67
2021/10/07 07:00:26;;;;;;;0.20;0.10;;;10.30;99.90;;;;;;4955111;28;20245;-66
2021/10/07 07:02:53;;;;;;;0.20;0.20;;;10.30;99.90;;;;;;4955014;28;20214;-65
2021/10/07 07:05:19;;;;;;;1.10;1.00;;;10.40;99.90;;;;;;4954538;28;20184;-66
2021/10/07 07:07:45;;;;;;;0.30;0.20;;;10.50;99.90;;;;;;4955193;28;20184;-64
2021/10/07 07:10:20;;;;;;;0.20;0.20;;;10.40;99.90;;;;;;4955241;28;20180;-68
2021/10/07 07:12:47;;;;;;;0.30;0.20;;;10.40;99.90;;;;;;4955724;28;20274;-68
2021/10/07 07:15:14;;;;;;;0.20;0.20;;;10.40;99.90;;;;;;4955147;28;20196;-66
2021/10/07 07:17:39;;;;;;;0.20;0.20;;;10.50;99.90;;;;;;4955094;28;20867;-67
2021/10/07 07:20:06;;;;;;;2.33;0.83;;;10.60;99.90;;;;;;4954696;28;20291;-67
2021/10/07 07:22:31;;;;;;;0.30;0.20;;;10.60;99.90;;;;;;4955023;28;20213;-65
2021/10/07 07:24:57;;;;;;;0.30;0.20;;;10.60;99.90;;;;;;4955673;28;20266;-67
2021/10/07 07:27:23;;;;;;;0.30;0.20;;;10.60;99.90;;;;;;4956153;28;20192;-67
2021/10/07 07:29:49;;;;;;;0.20;0.17;;;10.70;99.90;;;;;;4955194;28;20202;-65
2021/10/07 07:32:15;;;;;;;0.30;0.20;;;10.80;99.90;;;;;;4955812;28;20467;-67
2021/10/07 07:34:41;;;;;;;0.30;0.28;;;10.80;99.90;;;;;;4958175;28;20184;-68
2021/10/07 07:37:07;;;;;;;0.30;0.20;;;10.80;99.90;;;;;;4958922;28;20263;-65
2021/10/07 07:39:34;;;;;;;0.30;0.20;;;10.90;99.90;;;;;;4958193;28;20347;-65
2021/10/07 07:41:59;;;;;;;0.30;0.30;;;11.10;99.90;;;;;;4958882;28;20191;-67
2021/10/07 07:44:25;;;;;;;0.20;0.20;;;11.20;99.90;;;;;;4958472;28;20181;-66
2021/10/07 07:46:51;;;;;;;0.77;0.40;;;11.20;99.90;;;;;;4957534;28;20235;-65
2021/10/07 07:49:16;;;;;;;0.30;0.20;;;11.20;99.90;;;;;;4957331;28;20188;-65
2021/10/07 07:51:42;;;;;;;0.30;0.20;;;11.30;99.90;;;;;;4958170;28;20188;-65
2021/10/07 07:54:08;;;;;;;0.30;0.20;;;11.40;99.90;;;;;;4958426;28;20487;-64
2021/10/07 07:56:33;;;;;;;0.30;0.10;;;11.40;99.90;;;;;;4958946;28;20558;-65
2021/10/07 07:59:00;;;;;;;0.30;0.30;;;11.50;99.90;;;;;;4958397;28;20625;-65
2021/10/07 08:01:26;;;;;;;0.30;0.20;;;11.50;99.90;;;;;;4958543;28;20180;-65
2021/10/07 08:03:51;;;;;;;0.57;0.57;;;11.60;99.90;;;;;;4958446;28;20247;-64
2021/10/07 08:06:17;;;;;;;0.83;0.70;;;11.70;99.90;;;;;;4958004;28;20208;-68
2021/10/07 08:08:43;;;;;;;0.30;0.20;;;11.80;99.90;;;;;;4957731;29;20424;-68
2021/10/07 08:11:08;;;;;;;0.30;0.20;;;11.80;99.90;;;;;;4957918;28;20184;-65
2021/10/07 08:13:34;;;;;;;0.60;0.50;;;12.00;99.90;;;;;;4957625;28;20180;-68
2021/10/07 08:16:00;;;;;;;0.30;0.20;;;11.80;99.90;;;;;;4958000;28;20239;-64
2021/10/07 08:18:26;;;;;;;1.07;1.07;;;12.00;99.90;;;;;;4957596;28;20226;-68
2021/10/07 08:20:53;;;;;;;0.30;0.20;;;12.00;99.90;;;;;;4972865;28;20572;-67
2021/10/07 08:23:23;;;;;;;0.30;0.20;;;12.40;99.90;;;;;;4958106;28;20208;-68
2021/10/07 08:25:49;;;;;;;0.52;0.47;;;12.40;99.90;;;;;;4958143;28;20528;-65
2021/10/07 08:28:14;;;;;;;0.30;0.20;;;12.40;99.90;;;;;;4957771;28;20657;-68
2021/10/07 08:30:40;;;;;;;0.30;0.20;;;12.50;99.90;;;;;;4956970;28;20284;-65
2021/10/07 08:33:06;;;;;;;0.30;0.20;;;12.60;99.90;;;;;;4957745;28;20212;-68
2021/10/07 08:35:32;;;;;;;0.30;0.20;;;12.80;97.00;;;;;;4956596;28;20618;-68
2021/10/07 08:37:58;;;;;;;0.30;0.20;;;13.00;92.10;;;;;;4957412;28;20266;-67
2021/10/07 08:40:24;;;;;;;0.30;0.20;;;12.90;51.80;;;;;;4957591;28;20654;-67
2021/10/07 08:42:50;;;;;;;0.30;0.20;;;13.00;32.30;;;;;;4972670;28;20756;-66
2021/10/07 08:45:16;;;;;;;0.30;0.20;;;13.10;45.60;;;;;;4956571;28;20626;-65
2021/10/07 08:47:44;;;;;;;0.30;0.20;;;13.40;39.70;;;;;;4957412;28;20180;-65
2021/10/07 08:50:12;;;;;;;1.15;0.65;;;13.50;1.00;;;;;;4957117;28;20180;-66
2021/10/07 08:52:38;;;;;;;0.30;0.20;;;13.60;1.00;;;;;;4957331;28;20784;-65
2021/10/07 08:55:05;;;;;;;0.30;0.20;;;13.70;1.00;;;;;;4957001;28;20646;-65
2021/10/07 08:57:30;;;;;;;0.30;0.15;;;13.90;1.00;;;;;;4956921;28;20184;-65
2021/10/07 08:59:56;;;;;;;0.30;0.20;;;13.90;1.00;;;;;;4956761;28;20235;-65
2021/10/07 09:02:30;;;;;;;0.30;0.20;;;13.90;1.00;;;;;;4957412;28;20191;-65
2021/10/07 09:05:17;;;;;;;0.30;0.20;;;14.00;1.00;;;;;;4955986;28;20180;-66
2021/10/07 09:08:04;;;;;;;0.30;0.20;;;14.10;1.00;;;;;;4957492;28;20176;-67
2021/10/07 09:10:49;;;;;;;0.30;0.20;;;14.30;1.00;;;;;;4957101;28;20220;-69
2021/10/07 09:13:25;;;;;;;5.88;2.45;;;14.20;1.00;;;;;;4956609;28;20188;-67
2021/10/07 09:15:53;;;;;;;0.40;0.30;;;14.10;1.00;;;;;;4956814;28;20271;-64
2021/10/07 09:18:19;;;;;;;0.30;0.20;;;14.20;1.00;;;;;;4956169;28;20196;-67
2021/10/07 09:20:48;;;;;;;3.38;3.15;;;14.30;1.00;;;;;;4955426;29;20213;-67
2021/10/07 09:23:17;;;;;;;0.30;0.20;;;14.30;1.00;;;;;;4956597;28;20173;-65
2021/10/07 09:25:59;;;;;;;0.30;0.10;;;14.40;1.00;;;;;;4956518;28;20609;-66
2021/10/07 09:28:27;;;;;;;0.30;0.20;;;14.40;1.00;;;;;;4956120;28;20208;-67
2021/10/07 09:30:59;;;;;;;1.95;1.42;;;14.50;1.00;;;;;;4956492;28;20203;-67
2021/10/07 09:33:37;;;;;;;0.65;0.65;;;14.70;1.00;;;;;;4971710;28;20526;-67
2021/10/07 09:36:13;;;;;;;0.30;0.20;;;14.70;1.00;;;;;;4956427;28;20249;-67
2021/10/07 09:38:39;;;;;;;0.70;0.35;;;14.60;1.00;;;;;;4955178;29;20215;-67
2021/10/07 09:41:13;;;;;;;0.40;0.30;;;14.70;1.00;;;;;;4956884;28;20274;-64
2021/10/07 09:44:07;;;;;;;0.60;0.40;;;14.50;1.00;;;;;;4955331;28;20431;-68
2021/10/07 09:46:48;;;;;;;0.30;0.20;;;14.40;1.00;;;;;;4954110;29;20642;-64
2021/10/07 09:49:19;;;;;;;9.68;7.82;;;14.60;1.00;;;;;;4956096;28;20693;-65
2021/10/07 09:51:51;;;;;;;0.30;0.20;;;14.80;1.00;;;;;;4956116;28;20258;-67
2021/10/07 09:54:19;;;;;;;0.40;0.30;;;15.00;1.00;;;;;;4956207;28;20192;-68
2021/10/07 09:56:59;;;;;;;0.40;0.20;;;15.10;1.00;;;;;;4955807;28;20266;-67
2021/10/07 09:59:36;;;;;;;0.75;0.75;;;15.20;1.00;;;;;;4955742;28;20208;-66
2021/10/07 10:02:02;;;;;;;0.40;0.20;;;15.30;1.00;;;;;;4955210;28;20176;-67
2021/10/07 10:04:30;;;;;;;0.50;0.30;;;15.20;1.00;;;;;;4954950;28;20180;-68
2021/10/07 10:06:56;;;;;;;1.40;0.75;;;15.20;1.00;;;;;;4956053;28;20442;-65
2021/10/07 10:09:26;;;;;;;1.00;0.50;;;15.40;1.00;;;;;;4955572;28;20184;-64
2021/10/07 10:11:52;;;;;;;0.40;0.20;;;15.40;1.00;;;;;;4954946;28;20218;-67
2021/10/07 10:14:19;;;;;;;2.22;2.08;;;15.40;1.00;;;;;;4956378;28;20195;-68
2021/10/07 10:16:45;;;;;;;0.68;0.55;;;15.20;1.00;;;;;;4954615;28;20198;-68
2021/10/07 10:19:12;;;;;;;0.40;0.20;;;15.20;1.00;;;;;;4955655;28;20220;-64
2021/10/07 10:21:40;;;;;;;0.40;0.20;;;15.20;1.00;;;;;;4955926;28;20202;-67
2021/10/07 10:24:08;;;;;;;2.80;0.88;;;15.30;1.00;;;;;;4956214;28;20255;-67
2021/10/07 10:26:38;;;;;;;0.40;0.20;;;15.50;1.00;;;;;;4955779;28;20546;-67
2021/10/07 10:29:21;;;;;;;0.40;0.10;;;15.60;99.90;;;;;;4955411;28;20192;-67
2021/10/07 10:31:52;;;;;;;0.40;0.20;;;15.70;99.90;;;;;;4954669;28;20198;-67
2021/10/07 10:34:18;;;;;;;0.40;0.17;;;15.80;99.90;;;;;;4955600;28;20200;-67
2021/10/07 10:36:53;;;;;;;0.40;0.20;;;15.80;99.90;;;;;;4955267;28;20511;-68
2021/10/07 10:39:29;;;;;;;0.40;0.20;;;15.70;40.30;;;;;;4955111;28;20652;-68
2021/10/07 10:42:00;;;;;;;0.40;0.20;;;15.80;99.90;;;;;;4955402;28;20546;-68
2021/10/07 10:44:31;;;;;;;0.40;0.20;;;15.80;99.90;;;;;;4955371;28;20198;-66
2021/10/07 10:47:06;;;;;;;0.40;0.20;;;15.90;99.90;;;;;;4955555;28;20187;-66
2021/10/07 10:49:59;;;;;;;1.70;0.93;;;15.80;99.90;;;;;;4954108;28;20180;-68
2021/10/07 10:52:27;;;;;;;0.50;0.32;;;15.50;99.90;;;;;;4955521;28;20192;-65
2021/10/07 10:54:59;;;;;;;0.40;0.10;;;15.80;1.00;;;;;;4955335;28;20255;-65
2021/10/07 10:57:39;;;;;;;0.40;0.20;;;15.90;99.90;;;;;;4955279;28;20210;-64
2021/10/07 11:00:13;;;;;;;0.40;0.20;;;16.10;99.90;;;;;;4954898;28;20208;-67
2021/10/07 11:02:45;;;;;;;0.52;0.40;;;16.10;99.90;;;;;;4955905;28;20254;-65
2021/10/07 11:05:12;;;;;;;0.40;0.20;;;16.20;99.90;;;;;;4955152;28;20211;-68
2021/10/07 11:07:39;;;;;;;0.40;0.20;;;16.20;67.70;;;;;;4955445;28;20184;-69
2021/10/07 11:10:14;;;;;;;0.40;0.17;;;16.30;99.90;;;;;;4958030;28;20195;-67
2021/10/07 11:12:47;;;;;;;0.40;0.25;;;16.60;1.00;;;;;;4959265;28;20248;-66
2021/10/07 11:15:13;;;;;;;0.40;0.20;;;16.70;1.00;;;;;;4958931;28;20188;-67
2021/10/07 11:17:43;;;;;;;0.40;0.20;;;17.10;1.00;;;;;;4958886;28;20685;-65
2021/10/07 11:20:15;;;;;;;0.40;0.20;;;17.50;1.00;;;;;;4958905;28;20558;-65
2021/10/07 11:22:55;;;;;;;0.40;0.20;;;17.30;1.00;;;;;;4958800;28;20428;-65
2021/10/07 11:25:21;;;;;;;1.17;0.77;;;17.30;1.00;;;;;;4958538;28;20504;-68
2021/10/07 11:27:48;;;;;;;1.03;0.93;;;17.20;1.00;;;;;;4958508;28;20451;-67
2021/10/07 11:30:21;;;;;;;0.40;0.20;;;16.80;93.40;;;;;;4958486;28;20248;-67
2021/10/07 11:32:47;;;;;;;0.40;0.20;;;16.90;1.00;;;;;;4959014;28;20438;-67
2021/10/07 11:35:16;;;;;;;1.33;0.97;;;17.20;1.00;;;;;;4958646;28;20474;-65
2021/10/07 11:38:05;;;;;;;0.75;0.57;;;17.10;99.90;;;;;;4958566;28;20428;-66
2021/10/07 11:40:31;;;;;;;0.40;0.20;;;17.00;99.90;;;;;;4957592;29;20513;-66
2021/10/07 11:43:04;;;;;;;0.40;0.20;;;16.90;99.90;;;;;;4958193;28;20481;-66
2021/10/07 11:45:39;;;;;;;0.40;0.20;;;17.00;1.00;;;;;;4958149;28;20307;-69
2021/10/07 11:48:09;;;;;;;0.40;0.20;;;17.30;99.90;;;;;;4958061;28;20483;-69
2021/10/07 11:50:41;;;;;;;0.40;0.30;;;17.30;99.90;;;;;;4958380;28;20792;-68
2021/10/07 11:53:10;;;;;;;0.40;0.20;;;17.40;99.90;;;;;;4958146;28;20490;-66
2021/10/07 11:55:39;;;;;;;0.40;0.20;;;17.80;99.90;;;;;;4958442;28;20442;-69
2021/10/07 11:58:05;;;;;;;0.50;0.20;;;18.00;99.90;;;;;;4957862;28;20525;-67
2021/10/07 12:00:41;;;;;;;0.67;0.53;;;18.00;99.90;;;;;;4959573;28;20428;-68
2021/10/07 12:03:19;;;;;;;0.40;0.20;;;17.70;99.90;;;;;;4958812;28;20559;-67
2021/10/07 12:05:50;;;;;;;1.10;1.00;;;17.60;99.90;;;;;;4958886;28;20419;-68
2021/10/07 12:08:17;;;;;;;0.40;0.20;;;17.70;77.90;;;;;;4958120;28;20459;-68
2021/10/07 12:11:12;;;;;;;0.40;0.20;;;17.30;1.00;;;;;;4957806;28;20446;-69
2021/10/07 12:13:40;;;;;;;0.40;0.20;;;17.00;1.00;;;;;;4957084;28;20447;-69
2021/10/07 12:16:10;;;;;;;0.40;0.20;;;17.10;54.10;;;;;;4957120;28;20452;-66
2021/10/07 12:18:40;;;;;;;0.40;0.10;;;17.20;99.90;;;;;;4957361;28;20538;-66
2021/10/07 12:21:13;;;;;;;0.40;0.20;;;17.30;1.00;;;;;;4956913;28;20212;-69
2021/10/07 12:23:45;;;;;;;0.40;0.20;;;17.30;99.90;;;;;;4957930;28;20164;-70
2021/10/07 12:26:11;;;;;;;0.40;0.20;;;17.50;1.00;;;;;;4957746;28;20948;-68
2021/10/07 12:28:53;;;;;;;1.00;0.50;;;17.40;99.90;;;;;;4957276;28;20251;-66
2021/10/07 12:31:25;;;;;;;0.40;0.20;;;17.50;1.00;;;;;;4957455;28;20279;-69
2021/10/07 12:34:10;;;;;;;0.40;0.10;;;17.80;99.90;;;;;;4957710;28;20511;-68
2021/10/07 12:36:40;;;;;;;0.83;0.30;;;17.80;99.90;;;;;;4957486;28;20780;-68
2021/10/07 12:39:23;;;;;;;0.40;0.10;;;17.90;99.90;;;;;;4957517;28;20483;-66
2021/10/07 12:41:51;;;;;;;0.40;0.20;;;18.00;1.00;;;;;;4957303;28;20495;-66
2021/10/07 12:44:19;;;;;;;0.40;0.20;;;18.00;1.00;;;;;;4957031;28;20766;-69
2021/10/07 12:46:48;;;;;;;0.40;0.20;;;17.90;99.90;;;;;;4956542;28;20439;-69
2021/10/07 12:49:15;;;;;;;0.40;0.20;;;17.70;99.90;;;;;;4957120;28;20440;-68
2021/10/07 12:51:47;;;;;;;0.40;0.20;;;17.90;99.90;;;;;;4957206;28;20522;-68
2021/10/07 12:54:17;;;;;;;0.40;0.20;;;18.10;1.00;;;;;;4957764;28;20436;-66
2021/10/07 12:56:45;;;;;;;0.40;0.20;;;17.90;1.00;;;;;;4957235;28;20921;-64
2021/10/07 12:59:11;;;;;;;0.80;0.43;;;18.10;99.90;;;;;;4956884;28;20503;-64
2021/10/07 13:01:40;;;;;;;0.40;0.20;;;18.20;1.00;;;;;;4956874;28;20448;-69
2021/10/07 13:04:24;;;;;;;0.47;0.23;;;18.10;99.90;;;;;;4956590;28;20779;-66